sensor_id;sensor_type;location;lat;lon;timestamp;temperature;humidity
15231;DHT22;32569;51.762;8.564;2023-07-16T00:00:10;21.50;94.00
15231;DHT22;32569;51.762;8.564;2023-07-16T00:02:39;21.60;94.10
15231;DHT22;32569;51.762;8.564;2023-07-16T00:05:06;21.50;93.90
15231;DHT22;32569;51.762;8.564;2023-07-16T00:07:33;21.50;94.20
15231;DHT22;32569;51.762;8.564;2023-07-16T00:09:59;21.50;94.30
15231;DHT22;32569;51.762;8.564;2023-07-16T00:12:26;21.50;94.50
15231;DHT22;32569;51.762;8.564;2023-07-16T00:14:53;21.50;94.30
15231;DHT22;32569;51.762;8.564;2023-07-16T00:17:20;21.50;94.30
15231;DHT22;32569;51.762;8.564;2023-07-16T00:19:48;21.40;94.60
15231;DHT22;32569;51.762;8.564;2023-07-16T00:22:15;21.40;94.70
15231;DHT22;32569;51.762;8.564;2023-07-16T00:24:42;21.50;95.00
15231;DHT22;32569;51.762;8.564;2023-07-16T00:27:09;21.50;94.80
15231;DHT22;32569;51.762;8.564;2023-07-16T00:29:35;21.50;94.80
15231;DHT22;32569;51.762;8.564;2023-07-16T00:32:02;21.50;94.70
15231;DHT22;32569;51.762;8.564;2023-07-16T00:34:29;21.40;95.00
15231;DHT22;32569;51.762;8.564;2023-07-16T00:36:57;21.40;95.00
15231;DHT22;32569;51.762;8.564;2023-07-16T00:39:27;21.40;94.90
15231;DHT22;32569;51.762;8.564;2023-07-16T00:41:54;21.50;94.90
15231;DHT22;32569;51.762;8.564;2023-07-16T00:44:21;21.40;94.90
15231;DHT22;32569;51.762;8.564;2023-07-16T00:46:48;21.40;94.90
15231;DHT22;32569;51.762;8.564;2023-07-16T00:49:14;21.40;95.10
15231;DHT22;32569;51.762;8.564;2023-07-16T00:51:42;21.40;95.20
15231;DHT22;32569;51.762;8.564;2023-07-16T00:54:11;21.40;95.20
15231;DHT22;32569;51.762;8.564;2023-07-16T00:56:38;21.40;94.90
15231;DHT22;32569;51.762;8.564;2023-07-16T00:59:05;21.30;94.90
15231;DHT22;32569;51.762;8.564;2023-07-16T01:01:31;21.30;95.20
15231;DHT22;32569;51.762;8.564;2023-07-16T01:03:58;21.30;95.20
15231;DHT22;32569;51.762;8.564;2023-07-16T01:06:30;21.30;95.10
15231;DHT22;32569;51.762;8.564;2023-07-16T01:09:03;21.30;94.80
15231;DHT22;32569;51.762;8.564;2023-07-16T01:11:33;21.20;95.00
15231;DHT22;32569;51.762;8.564;2023-07-16T01:14:02;21.10;94.90
15231;DHT22;32569;51.762;8.564;2023-07-16T01:16:29;21.20;94.90
15231;DHT22;32569;51.762;8.564;2023-07-16T01:18:55;21.10;95.40
15231;DHT22;32569;51.762;8.564;2023-07-16T01:21:23;21.10;95.90
15231;DHT22;32569;51.762;8.564;2023-07-16T01:24:04;21.10;96.50
15231;DHT22;32569;51.762;8.564;2023-07-16T01:26:55;20.90;97.10
15231;DHT22;32569;51.762;8.564;2023-07-16T01:29:31;20.70;98.00
15231;DHT22;32569;51.762;8.564;2023-07-16T01:32:00;20.70;98.30
15231;DHT22;32569;51.762;8.564;2023-07-16T01:34:30;20.60;99.00
15231;DHT22;32569;51.762;8.564;2023-07-16T01:36:59;20.50;99.60
15231;DHT22;32569;51.762;8.564;2023-07-16T01:39:26;20.40;99.90
15231;DHT22;32569;51.762;8.564;2023-07-16T01:41:52;20.30;99.90
15231;DHT22;32569;51.762;8.564;2023-07-16T01:44:19;20.30;99.90
15231;DHT22;32569;51.762;8.564;2023-07-16T01:46:59;20.30;99.90
15231;DHT22;32569;51.762;8.564;2023-07-16T01:49:30;20.20;99.90
15231;DHT22;32569;51.762;8.564;2023-07-16T01:51:56;20.20;99.90
15231;DHT22;32569;51.762;8.564;2023-07-16T01:54:23;20.20;99.90
15231;DHT22;32569;51.762;8.564;2023-07-16T01:56:50;20.20;99.90
15231;DHT22;32569;51.762;8.564;2023-07-16T01:59:17;20.20;99.90
15231;DHT22;32569;51.762;8.564;2023-07-16T02:01:43;20.20;99.90
15231;DHT22;32569;51.762;8.564;2023-07-16T02:04:11;20.30;99.90
15231;DHT22;32569;51.762;8.564;2023-07-16T02:06:38;20.30;99.90
15231;DHT22;32569;51.762;8.564;2023-07-16T02:09:05;20.20;99.90
15231;DHT22;32569;51.762;8.564;2023-07-16T02:11:32;20.10;99.90
15231;DHT22;32569;51.762;8.564;2023-07-16T02:13:58;20.20;99.90
15231;DHT22;32569;51.762;8.564;2023-07-16T02:16:25;20.30;99.90
15231;DHT22;32569;51.762;8.564;2023-07-16T02:18:52;20.30;99.90
15231;DHT22;32569;51.762;8.564;2023-07-16T02:21:20;20.30;99.90
15231;DHT22;32569;51.762;8.564;2023-07-16T02:23:46;20.30;99.90
15231;DHT22;32569;51.762;8.564;2023-07-16T02:26:13;20.20;99.90
15231;DHT22;32569;51.762;8.564;2023-07-16T02:28:40;20.30;99.90
15231;DHT22;32569;51.762;8.564;2023-07-16T02:31:06;20.40;99.90
15231;DHT22;32569;51.762;8.564;2023-07-16T02:33:33;20.30;99.90
15231;DHT22;32569;51.762;8.564;2023-07-16T02:36:00;20.30;99.90
15231;DHT22;32569;51.762;8.564;2023-07-16T02:38:28;20.30;99.90
15231;DHT22;32569;51.762;8.564;2023-07-16T02:40:55;20.30;99.90
15231;DHT22;32569;51.762;8.564;2023-07-16T02:43:21;20.30;99.90
15231;DHT22;32569;51.762;8.564;2023-07-16T02:45:48;20.20;99.90
15231;DHT22;32569;51.762;8.564;2023-07-16T02:48:15;20.10;99.90
15231;DHT22;32569;51.762;8.564;2023-07-16T02:50:41;20.10;99.90
15231;DHT22;32569;51.762;8.564;2023-07-16T02:53:08;20.10;99.90
15231;DHT22;32569;51.762;8.564;2023-07-16T02:55:36;20.10;99.90
15231;DHT22;32569;51.762;8.564;2023-07-16T02:58:03;20.00;99.90
15231;DHT22;32569;51.762;8.564;2023-07-16T03:00:30;19.80;99.90
15231;DHT22;32569;51.762;8.564;2023-07-16T03:02:57;19.70;99.90
15231;DHT22;32569;51.762;8.564;2023-07-16T03:05:25;19.70;99.90
15231;DHT22;32569;51.762;8.564;2023-07-16T03:07:52;19.70;99.90
15231;DHT22;32569;51.762;8.564;2023-07-16T03:10:19;19.70;99.90
15231;DHT22;32569;51.762;8.564;2023-07-16T03:12:47;19.60;99.90
15231;DHT22;32569;51.762;8.564;2023-07-16T03:15:14;19.50;99.90
15231;DHT22;32569;51.762;8.564;2023-07-16T03:17:41;19.50;99.90
15231;DHT22;32569;51.762;8.564;2023-07-16T03:20:09;19.50;99.90
15231;DHT22;32569;51.762;8.564;2023-07-16T03:22:36;19.50;99.90
15231;DHT22;32569;51.762;8.564;2023-07-16T03:25:03;19.50;99.80
15231;DHT22;32569;51.762;8.564;2023-07-16T03:27:30;19.50;99.80
15231;DHT22;32569;51.762;8.564;2023-07-16T03:29:59;19.50;99.60
15231;DHT22;32569;51.762;8.564;2023-07-16T03:32:25;19.40;99.60
15231;DHT22;32569;51.762;8.564;2023-07-16T03:34:52;19.30;99.70
15231;DHT22;32569;51.762;8.564;2023-07-16T03:37:19;19.30;99.80
15231;DHT22;32569;51.762;8.564;2023-07-16T03:39:45;19.30;99.70
15231;DHT22;32569;51.762;8.564;2023-07-16T03:42:12;19.30;99.80
15231;DHT22;32569;51.762;8.564;2023-07-16T03:44:39;19.30;99.90
15231;DHT22;32569;51.762;8.564;2023-07-16T03:47:07;19.30;99.80
15231;DHT22;32569;51.762;8.564;2023-07-16T03:49:33;19.30;99.90
15231;DHT22;32569;51.762;8.564;2023-07-16T03:52:00;19.30;99.90
15231;DHT22;32569;51.762;8.564;2023-07-16T03:54:27;19.30;99.90
15231;DHT22;32569;51.762;8.564;2023-07-16T03:56:54;19.30;99.90
15231;DHT22;32569;51.762;8.564;2023-07-16T03:59:21;19.30;99.90
15231;DHT22;32569;51.762;8.564;2023-07-16T04:01:47;19.30;99.90
15231;DHT22;32569;51.762;8.564;2023-07-16T04:04:16;19.30;99.90
15231;DHT22;32569;51.762;8.564;2023-07-16T04:06:42;19.30;99.90
15231;DHT22;32569;51.762;8.564;2023-07-16T04:09:09;19.30;99.90
15231;DHT22;32569;51.762;8.564;2023-07-16T04:11:36;19.40;99.90
15231;DHT22;32569;51.762;8.564;2023-07-16T04:14:02;19.40;99.90
15231;DHT22;32569;51.762;8.564;2023-07-16T04:16:29;19.40;99.90
15231;DHT22;32569;51.762;8.564;2023-07-16T04:18:56;19.40;99.90
15231;DHT22;32569;51.762;8.564;2023-07-16T04:21:24;19.40;99.90
15231;DHT22;32569;51.762;8.564;2023-07-16T04:23:51;19.40;99.90
15231;DHT22;32569;51.762;8.564;2023-07-16T04:26:17;19.40;99.90
15231;DHT22;32569;51.762;8.564;2023-07-16T04:28:44;19.30;99.90
15231;DHT22;32569;51.762;8.564;2023-07-16T04:31:11;19.40;99.90
15231;DHT22;32569;51.762;8.564;2023-07-16T04:33:37;19.40;99.90
15231;DHT22;32569;51.762;8.564;2023-07-16T04:36:04;19.40;99.90
15231;DHT22;32569;51.762;8.564;2023-07-16T04:38:32;19.50;99.90
15231;DHT22;32569;51.762;8.564;2023-07-16T04:40:59;19.60;99.90
15231;DHT22;32569;51.762;8.564;2023-07-16T04:43:26;19.70;99.70
15231;DHT22;32569;51.762;8.564;2023-07-16T04:45:52;19.80;99.60
15231;DHT22;32569;51.762;8.564;2023-07-16T04:48:19;19.80;99.40
15231;DHT22;32569;51.762;8.564;2023-07-16T04:50:46;19.80;99.30
15231;DHT22;32569;51.762;8.564;2023-07-16T04:53:12;20.00;99.20
15231;DHT22;32569;51.762;8.564;2023-07-16T04:55:40;20.30;98.70
15231;DHT22;32569;51.762;8.564;2023-07-16T04:58:07;20.40;98.50
15231;DHT22;32569;51.762;8.564;2023-07-16T05:00:34;20.50;98.30
15231;DHT22;32569;51.762;8.564;2023-07-16T05:03:00;20.60;97.80
15231;DHT22;32569;51.762;8.564;2023-07-16T05:05:27;20.80;97.50
15231;DHT22;32569;51.762;8.564;2023-07-16T05:07:54;21.00;97.40
15231;DHT22;32569;51.762;8.564;2023-07-16T05:10:21;21.30;97.00
15231;DHT22;32569;51.762;8.564;2023-07-16T05:12:49;21.40;96.30
15231;DHT22;32569;51.762;8.564;2023-07-16T05:15:16;21.50;96.30
15231;DHT22;32569;51.762;8.564;2023-07-16T05:17:43;21.80;95.90
15231;DHT22;32569;51.762;8.564;2023-07-16T05:20:10;22.00;95.70
15231;DHT22;32569;51.762;8.564;2023-07-16T05:22:37;22.00;95.30
15231;DHT22;32569;51.762;8.564;2023-07-16T05:25:05;22.10;95.20
15231;DHT22;32569;51.762;8.564;2023-07-16T05:27:31;22.20;94.90
15231;DHT22;32569;51.762;8.564;2023-07-16T05:29:59;22.30;94.50
15231;DHT22;32569;51.762;8.564;2023-07-16T05:32:26;22.30;94.20
15231;DHT22;32569;51.762;8.564;2023-07-16T05:34:53;22.30;93.70
15231;DHT22;32569;51.762;8.564;2023-07-16T05:37:20;22.30;93.10
15231;DHT22;32569;51.762;8.564;2023-07-16T05:39:46;22.20;93.30
15231;DHT22;32569;51.762;8.564;2023-07-16T05:42:13;22.30;92.90
15231;DHT22;32569;51.762;8.564;2023-07-16T05:44:40;22.30;92.30
15231;DHT22;32569;51.762;8.564;2023-07-16T05:47:08;22.30;91.90
15231;DHT22;32569;51.762;8.564;2023-07-16T05:49:35;22.20;91.70
15231;DHT22;32569;51.762;8.564;2023-07-16T05:52:02;22.30;91.30
15231;DHT22;32569;51.762;8.564;2023-07-16T05:54:29;22.20;91.10
15231;DHT22;32569;51.762;8.564;2023-07-16T05:56:57;22.40;90.90
15231;DHT22;32569;51.762;8.564;2023-07-16T05:59:23;22.40;90.60
15231;DHT22;32569;51.762;8.564;2023-07-16T06:01:50;22.50;90.70
15231;DHT22;32569;51.762;8.564;2023-07-16T06:04:18;22.60;90.20
15231;DHT22;32569;51.762;8.564;2023-07-16T06:06:45;22.60;90.20
15231;DHT22;32569;51.762;8.564;2023-07-16T06:09:11;22.70;90.30
15231;DHT22;32569;51.762;8.564;2023-07-16T06:11:38;22.90;90.20
15231;DHT22;32569;51.762;8.564;2023-07-16T06:14:05;23.10;89.30
15231;DHT22;32569;51.762;8.564;2023-07-16T06:16:32;23.00;88.10
15231;DHT22;32569;51.762;8.564;2023-07-16T06:18:58;22.90;88.30
15231;DHT22;32569;51.762;8.564;2023-07-16T06:21:26;22.80;86.90
15231;DHT22;32569;51.762;8.564;2023-07-16T06:23:53;22.90;87.50
15231;DHT22;32569;51.762;8.564;2023-07-16T06:26:20;23.00;87.10
15231;DHT22;32569;51.762;8.564;2023-07-16T06:28:46;23.10;86.70
15231;DHT22;32569;51.762;8.564;2023-07-16T06:31:14;23.20;87.40
15231;DHT22;32569;51.762;8.564;2023-07-16T06:33:41;23.20;87.60
15231;DHT22;32569;51.762;8.564;2023-07-16T06:36:08;23.40;87.30
15231;DHT22;32569;51.762;8.564;2023-07-16T06:38:36;23.70;87.40
15231;DHT22;32569;51.762;8.564;2023-07-16T06:41:03;23.50;86.70
15231;DHT22;32569;51.762;8.564;2023-07-16T06:43:29;23.40;86.90
15231;DHT22;32569;51.762;8.564;2023-07-16T06:45:56;23.30;85.70
15231;DHT22;32569;51.762;8.564;2023-07-16T06:48:23;23.00;86.90
15231;DHT22;32569;51.762;8.564;2023-07-16T06:50:50;22.90;85.90
15231;DHT22;32569;51.762;8.564;2023-07-16T06:53:17;22.70;86.10
15231;DHT22;32569;51.762;8.564;2023-07-16T06:55:47;22.50;87.90
15231;DHT22;32569;51.762;8.564;2023-07-16T06:58:14;22.20;87.70
15231;DHT22;32569;51.762;8.564;2023-07-16T07:00:41;21.80;88.20
15231;DHT22;32569;51.762;8.564;2023-07-16T07:03:08;21.50;88.50
15231;DHT22;32569;51.762;8.564;2023-07-16T07:05:35;21.50;90.00
15231;DHT22;32569;51.762;8.564;2023-07-16T07:08:02;21.50;90.20
15231;DHT22;32569;51.762;8.564;2023-07-16T07:10:29;21.50;90.50
15231;DHT22;32569;51.762;8.564;2023-07-16T07:12:57;21.60;90.10
15231;DHT22;32569;51.762;8.564;2023-07-16T07:15:24;21.70;90.20
15231;DHT22;32569;51.762;8.564;2023-07-16T07:17:50;21.80;90.20
15231;DHT22;32569;51.762;8.564;2023-07-16T07:20:17;21.90;89.60
15231;DHT22;32569;51.762;8.564;2023-07-16T07:22:44;21.90;90.10
15231;DHT22;32569;51.762;8.564;2023-07-16T07:25:11;22.00;90.80
15231;DHT22;32569;51.762;8.564;2023-07-16T07:27:37;22.00;90.40
15231;DHT22;32569;51.762;8.564;2023-07-16T07:30:07;22.10;88.80
15231;DHT22;32569;51.762;8.564;2023-07-16T07:32:37;22.10;90.00
15231;DHT22;32569;51.762;8.564;2023-07-16T07:35:04;22.20;88.80
15231;DHT22;32569;51.762;8.564;2023-07-16T07:37:31;22.20;89.80
15231;DHT22;32569;51.762;8.564;2023-07-16T07:39:59;22.20;89.70
15231;DHT22;32569;51.762;8.564;2023-07-16T07:42:25;22.20;89.80
15231;DHT22;32569;51.762;8.564;2023-07-16T07:44:53;22.40;88.50
15231;DHT22;32569;51.762;8.564;2023-07-16T07:47:21;22.50;89.10
15231;DHT22;32569;51.762;8.564;2023-07-16T07:49:48;22.70;87.40
15231;DHT22;32569;51.762;8.564;2023-07-16T07:52:15;22.70;87.70
15231;DHT22;32569;51.762;8.564;2023-07-16T07:54:42;22.70;86.00
15231;DHT22;32569;51.762;8.564;2023-07-16T07:57:08;22.70;86.20
15231;DHT22;32569;51.762;8.564;2023-07-16T07:59:35;22.70;85.90
15231;DHT22;32569;51.762;8.564;2023-07-16T08:02:02;22.70;86.30
15231;DHT22;32569;51.762;8.564;2023-07-16T08:04:30;22.60;85.60
15231;DHT22;32569;51.762;8.564;2023-07-16T08:06:57;22.40;86.90
15231;DHT22;32569;51.762;8.564;2023-07-16T08:09:25;22.50;87.30
15231;DHT22;32569;51.762;8.564;2023-07-16T08:11:52;22.30;85.60
15231;DHT22;32569;51.762;8.564;2023-07-16T08:14:21;22.30;85.90
15231;DHT22;32569;51.762;8.564;2023-07-16T08:16:48;22.30;85.70
15231;DHT22;32569;51.762;8.564;2023-07-16T08:19:15;22.30;85.60
15231;DHT22;32569;51.762;8.564;2023-07-16T08:21:43;22.30;84.40
15231;DHT22;32569;51.762;8.564;2023-07-16T08:24:10;22.10;84.80
15231;DHT22;32569;51.762;8.564;2023-07-16T08:26:37;22.10;85.50
15231;DHT22;32569;51.762;8.564;2023-07-16T08:29:03;22.00;85.30
15231;DHT22;32569;51.762;8.564;2023-07-16T08:31:30;22.00;85.10
15231;DHT22;32569;51.762;8.564;2023-07-16T08:33:57;22.20;86.30
15231;DHT22;32569;51.762;8.564;2023-07-16T08:36:24;22.40;85.80
15231;DHT22;32569;51.762;8.564;2023-07-16T08:38:52;22.70;84.50
15231;DHT22;32569;51.762;8.564;2023-07-16T08:41:18;22.70;83.40
15231;DHT22;32569;51.762;8.564;2023-07-16T08:43:46;22.70;84.90
15231;DHT22;32569;51.762;8.564;2023-07-16T08:46:14;22.80;84.90
15231;DHT22;32569;51.762;8.564;2023-07-16T08:48:41;23.00;82.40
15231;DHT22;32569;51.762;8.564;2023-07-16T08:51:09;23.00;81.90
15231;DHT22;32569;51.762;8.564;2023-07-16T08:53:37;22.70;83.20
15231;DHT22;32569;51.762;8.564;2023-07-16T08:56:05;22.60;82.10
15231;DHT22;32569;51.762;8.564;2023-07-16T08:58:32;22.60;83.40
15231;DHT22;32569;51.762;8.564;2023-07-16T09:00:59;22.60;83.60
15231;DHT22;32569;51.762;8.564;2023-07-16T09:03:27;22.60;83.70
15231;DHT22;32569;51.762;8.564;2023-07-16T09:05:54;22.70;83.90
15231;DHT22;32569;51.762;8.564;2023-07-16T09:08:21;22.70;83.70
15231;DHT22;32569;51.762;8.564;2023-07-16T09:10:54;22.60;83.50
15231;DHT22;32569;51.762;8.564;2023-07-16T09:13:23;22.80;82.50
15231;DHT22;32569;51.762;8.564;2023-07-16T09:15:52;22.90;82.20
15231;DHT22;32569;51.762;8.564;2023-07-16T09:18:20;22.80;82.60
15231;DHT22;32569;51.762;8.564;2023-07-16T09:20:47;22.90;82.70
15231;DHT22;32569;51.762;8.564;2023-07-16T09:23:16;22.80;82.90
15231;DHT22;32569;51.762;8.564;2023-07-16T09:25:45;22.70;82.70
15231;DHT22;32569;51.762;8.564;2023-07-16T09:28:12;22.60;82.30
15231;DHT22;32569;51.762;8.564;2023-07-16T09:30:40;22.70;82.80
15231;DHT22;32569;51.762;8.564;2023-07-16T09:33:12;22.80;81.70
15231;DHT22;32569;51.762;8.564;2023-07-16T09:35:39;22.80;82.40
15231;DHT22;32569;51.762;8.564;2023-07-16T09:38:07;23.00;82.20
15231;DHT22;32569;51.762;8.564;2023-07-16T09:40:36;23.00;80.00
15231;DHT22;32569;51.762;8.564;2023-07-16T09:43:03;22.90;81.00
15231;DHT22;32569;51.762;8.564;2023-07-16T09:45:30;22.70;80.30
15231;DHT22;32569;51.762;8.564;2023-07-16T09:47:58;22.70;79.70
15231;DHT22;32569;51.762;8.564;2023-07-16T09:50:28;22.80;80.80
15231;DHT22;32569;51.762;8.564;2023-07-16T09:52:56;22.90;80.80
15231;DHT22;32569;51.762;8.564;2023-07-16T09:55:24;22.90;80.80
15231;DHT22;32569;51.762;8.564;2023-07-16T09:57:55;22.90;80.10
15231;DHT22;32569;51.762;8.564;2023-07-16T10:00:24;22.90;80.40
15231;DHT22;32569;51.762;8.564;2023-07-16T10:02:51;23.00;79.80
15231;DHT22;32569;51.762;8.564;2023-07-16T10:05:25;23.10;79.90
15231;DHT22;32569;51.762;8.564;2023-07-16T10:07:52;23.00;79.90
15231;DHT22;32569;51.762;8.564;2023-07-16T10:10:20;23.10;80.20
15231;DHT22;32569;51.762;8.564;2023-07-16T10:13:06;22.90;80.10
15231;DHT22;32569;51.762;8.564;2023-07-16T10:15:33;22.70;80.10
15231;DHT22;32569;51.762;8.564;2023-07-16T10:18:00;22.70;81.30
15231;DHT22;32569;51.762;8.564;2023-07-16T10:20:32;22.70;80.10
15231;DHT22;32569;51.762;8.564;2023-07-16T10:23:10;22.90;81.10
15231;DHT22;32569;51.762;8.564;2023-07-16T10:25:37;23.10;81.50
15231;DHT22;32569;51.762;8.564;2023-07-16T10:28:04;23.20;79.90
15231;DHT22;32569;51.762;8.564;2023-07-16T10:30:32;23.30;80.80
15231;DHT22;32569;51.762;8.564;2023-07-16T10:33:02;23.50;79.50
15231;DHT22;32569;51.762;8.564;2023-07-16T10:35:34;23.60;79.90
15231;DHT22;32569;51.762;8.564;2023-07-16T10:38:01;23.70;79.30
15231;DHT22;32569;51.762;8.564;2023-07-16T10:40:27;23.60;78.00
15231;DHT22;32569;51.762;8.564;2023-07-16T10:42:54;23.30;78.10
15231;DHT22;32569;51.762;8.564;2023-07-16T10:45:22;23.30;79.80
15231;DHT22;32569;51.762;8.564;2023-07-16T10:47:53;23.50;80.80
15231;DHT22;32569;51.762;8.564;2023-07-16T10:50:20;23.70;79.60
15231;DHT22;32569;51.762;8.564;2023-07-16T10:52:51;23.70;79.30
15231;DHT22;32569;51.762;8.564;2023-07-16T10:55:19;23.80;79.60
15231;DHT22;32569;51.762;8.564;2023-07-16T10:57:47;23.70;78.40
15231;DHT22;32569;51.762;8.564;2023-07-16T11:00:15;23.40;78.10
15231;DHT22;32569;51.762;8.564;2023-07-16T11:02:42;23.40;78.60
15231;DHT22;32569;51.762;8.564;2023-07-16T11:05:10;23.50;79.10
15231;DHT22;32569;51.762;8.564;2023-07-16T11:07:37;23.60;78.40
15231;DHT22;32569;51.762;8.564;2023-07-16T11:10:06;23.70;78.70
15231;DHT22;32569;51.762;8.564;2023-07-16T11:12:33;23.80;78.40
15231;DHT22;32569;51.762;8.564;2023-07-16T11:15:00;23.90;78.60
15231;DHT22;32569;51.762;8.564;2023-07-16T11:17:27;24.00;77.70
15231;DHT22;32569;51.762;8.564;2023-07-16T11:19:54;24.10;77.40
15231;DHT22;32569;51.762;8.564;2023-07-16T11:22:24;24.30;78.00
15231;DHT22;32569;51.762;8.564;2023-07-16T11:24:52;24.40;76.90
15231;DHT22;32569;51.762;8.564;2023-07-16T11:27:21;24.50;76.60
15231;DHT22;32569;51.762;8.564;2023-07-16T11:29:50;24.60;77.10
15231;DHT22;32569;51.762;8.564;2023-07-16T11:32:27;24.60;76.70
15231;DHT22;32569;51.762;8.564;2023-07-16T11:34:55;24.50;76.50
15231;DHT22;32569;51.762;8.564;2023-07-16T11:37:23;24.40;76.40
15231;DHT22;32569;51.762;8.564;2023-07-16T11:39:51;24.50;76.80
15231;DHT22;32569;51.762;8.564;2023-07-16T11:42:28;24.50;76.90
15231;DHT22;32569;51.762;8.564;2023-07-16T11:44:54;24.50;76.80
15231;DHT22;32569;51.762;8.564;2023-07-16T11:47:21;24.40;74.90
15231;DHT22;32569;51.762;8.564;2023-07-16T11:49:48;24.50;75.50
15231;DHT22;32569;51.762;8.564;2023-07-16T11:52:18;24.50;75.10
15231;DHT22;32569;51.762;8.564;2023-07-16T11:54:45;24.60;75.70
15231;DHT22;32569;51.762;8.564;2023-07-16T11:57:11;24.60;75.40
15231;DHT22;32569;51.762;8.564;2023-07-16T11:59:39;24.50;76.20
15231;DHT22;32569;51.762;8.564;2023-07-16T12:02:07;24.50;74.70
15231;DHT22;32569;51.762;8.564;2023-07-16T12:04:34;24.60;75.20
15231;DHT22;32569;51.762;8.564;2023-07-16T12:07:00;24.50;75.20
15231;DHT22;32569;51.762;8.564;2023-07-16T12:09:28;24.40;75.00
15231;DHT22;32569;51.762;8.564;2023-07-16T12:11:56;24.50;75.40
15231;DHT22;32569;51.762;8.564;2023-07-16T12:14:23;24.60;75.30
15231;DHT22;32569;51.762;8.564;2023-07-16T12:16:51;24.60;75.10
15231;DHT22;32569;51.762;8.564;2023-07-16T12:19:18;24.70;76.80
15231;DHT22;32569;51.762;8.564;2023-07-16T12:21:45;24.70;74.60
15231;DHT22;32569;51.762;8.564;2023-07-16T12:24:12;24.70;75.50
15231;DHT22;32569;51.762;8.564;2023-07-16T12:26:38;24.70;74.60
15231;DHT22;32569;51.762;8.564;2023-07-16T12:29:05;24.50;74.40
15231;DHT22;32569;51.762;8.564;2023-07-16T12:31:33;24.50;76.20
15231;DHT22;32569;51.762;8.564;2023-07-16T12:34:01;24.70;75.50
15231;DHT22;32569;51.762;8.564;2023-07-16T12:36:28;24.90;74.50
15231;DHT22;32569;51.762;8.564;2023-07-16T12:38:55;24.90;74.60
15231;DHT22;32569;51.762;8.564;2023-07-16T12:41:22;25.00;74.60
15231;DHT22;32569;51.762;8.564;2023-07-16T12:43:48;25.20;75.30
15231;DHT22;32569;51.762;8.564;2023-07-16T12:46:15;25.10;73.70
15231;DHT22;32569;51.762;8.564;2023-07-16T12:48:43;24.90;74.70
15231;DHT22;32569;51.762;8.564;2023-07-16T12:51:12;24.90;75.00
15231;DHT22;32569;51.762;8.564;2023-07-16T12:53:39;25.00;74.20
15231;DHT22;32569;51.762;8.564;2023-07-16T12:56:06;25.00;75.00
15231;DHT22;32569;51.762;8.564;2023-07-16T12:58:33;25.00;74.00
15231;DHT22;32569;51.762;8.564;2023-07-16T13:01:00;25.00;74.20
15231;DHT22;32569;51.762;8.564;2023-07-16T13:03:26;25.00;74.20
15231;DHT22;32569;51.762;8.564;2023-07-16T13:05:53;24.90;73.00
15231;DHT22;32569;51.762;8.564;2023-07-16T13:08:22;24.90;74.20
15231;DHT22;32569;51.762;8.564;2023-07-16T13:10:48;25.00;73.20
15231;DHT22;32569;51.762;8.564;2023-07-16T13:13:15;25.00;74.20
15231;DHT22;32569;51.762;8.564;2023-07-16T13:15:42;25.20;74.50
15231;DHT22;32569;51.762;8.564;2023-07-16T13:18:09;25.30;74.70
15231;DHT22;32569;51.762;8.564;2023-07-16T13:20:37;25.50;74.00
15231;DHT22;32569;51.762;8.564;2023-07-16T13:23:03;25.40;73.90
15231;DHT22;32569;51.762;8.564;2023-07-16T13:25:32;25.20;73.80
15231;DHT22;32569;51.762;8.564;2023-07-16T13:27:58;25.20;73.40
15231;DHT22;32569;51.762;8.564;2023-07-16T13:30:25;25.10;74.10
15231;DHT22;32569;51.762;8.564;2023-07-16T13:32:52;25.10;73.50
15231;DHT22;32569;51.762;8.564;2023-07-16T13:35:21;25.10;73.90
15231;DHT22;32569;51.762;8.564;2023-07-16T13:37:48;25.40;74.10
15231;DHT22;32569;51.762;8.564;2023-07-16T13:40:15;25.10;73.00
15231;DHT22;32569;51.762;8.564;2023-07-16T13:42:43;25.10;75.30
15231;DHT22;32569;51.762;8.564;2023-07-16T13:45:10;25.10;73.70
15231;DHT22;32569;51.762;8.564;2023-07-16T13:47:36;25.10;74.00
15231;DHT22;32569;51.762;8.564;2023-07-16T13:50:04;25.20;73.70
15231;DHT22;32569;51.762;8.564;2023-07-16T13:52:30;25.30;72.90
15231;DHT22;32569;51.762;8.564;2023-07-16T13:54:57;25.20;73.70
15231;DHT22;32569;51.762;8.564;2023-07-16T13:57:24;25.10;73.70
15231;DHT22;32569;51.762;8.564;2023-07-16T13:59:52;24.90;75.20
15231;DHT22;32569;51.762;8.564;2023-07-16T14:02:19;25.20;74.50
15231;DHT22;32569;51.762;8.564;2023-07-16T14:04:46;25.40;73.80
15231;DHT22;32569;51.762;8.564;2023-07-16T14:07:13;25.50;73.50
15231;DHT22;32569;51.762;8.564;2023-07-16T14:09:39;25.40;73.00
15231;DHT22;32569;51.762;8.564;2023-07-16T14:12:06;25.40;74.20
15231;DHT22;32569;51.762;8.564;2023-07-16T14:14:33;25.40;74.50
15231;DHT22;32569;51.762;8.564;2023-07-16T14:17:03;25.40;74.70
15231;DHT22;32569;51.762;8.564;2023-07-16T14:19:30;25.40;74.10
15231;DHT22;32569;51.762;8.564;2023-07-16T14:21:57;25.50;74.90
15231;DHT22;32569;51.762;8.564;2023-07-16T14:24:24;25.50;73.40
15231;DHT22;32569;51.762;8.564;2023-07-16T14:26:51;25.50;74.90
15231;DHT22;32569;51.762;8.564;2023-07-16T14:29:17;25.60;75.50
15231;DHT22;32569;51.762;8.564;2023-07-16T14:31:44;25.60;73.80
15231;DHT22;32569;51.762;8.564;2023-07-16T14:34:12;25.50;75.20
15231;DHT22;32569;51.762;8.564;2023-07-16T14:36:40;25.50;74.50
15231;DHT22;32569;51.762;8.564;2023-07-16T14:39:07;25.40;74.20
15231;DHT22;32569;51.762;8.564;2023-07-16T14:41:33;25.30;74.50
15231;DHT22;32569;51.762;8.564;2023-07-16T14:44:00;25.30;74.20
15231;DHT22;32569;51.762;8.564;2023-07-16T14:46:27;25.40;74.10
15231;DHT22;32569;51.762;8.564;2023-07-16T14:48:56;25.30;72.80
15231;DHT22;32569;51.762;8.564;2023-07-16T14:51:25;25.40;74.00
15231;DHT22;32569;51.762;8.564;2023-07-16T14:53:51;25.60;73.70
15231;DHT22;32569;51.762;8.564;2023-07-16T14:56:18;25.80;75.20
15231;DHT22;32569;51.762;8.564;2023-07-16T14:58:45;26.00;73.60
15231;DHT22;32569;51.762;8.564;2023-07-16T15:01:12;25.70;72.60
15231;DHT22;32569;51.762;8.564;2023-07-16T15:03:39;25.70;74.80
15231;DHT22;32569;51.762;8.564;2023-07-16T15:06:07;25.80;75.20
15231;DHT22;32569;51.762;8.564;2023-07-16T15:08:37;25.80;75.30
15231;DHT22;32569;51.762;8.564;2023-07-16T15:11:04;25.70;75.00
15231;DHT22;32569;51.762;8.564;2023-07-16T15:13:31;25.70;74.30
15231;DHT22;32569;51.762;8.564;2023-07-16T15:15:58;25.50;75.70
15231;DHT22;32569;51.762;8.564;2023-07-16T15:18:25;25.50;75.00
15231;DHT22;32569;51.762;8.564;2023-07-16T15:20:56;25.50;75.70
15231;DHT22;32569;51.762;8.564;2023-07-16T15:23:24;25.80;76.00
15231;DHT22;32569;51.762;8.564;2023-07-16T15:25:53;25.80;74.90
15231;DHT22;32569;51.762;8.564;2023-07-16T15:28:20;25.70;75.10
15231;DHT22;32569;51.762;8.564;2023-07-16T15:30:48;25.70;73.80